• Join FlightAware (Why Join?)
  • Login
  • US Flag 
03:38AM EDT


 

Airport Tracker/Info


-or-


 

Live Flight TrackerFlight Track Log ✈ SWA407 ✈ 14-Apr-2013 ✈ KSAN - KLAS

Flight Track Log - Related Links

Times and Time Zones

All times are in EDT time to prevent confusion due to time zone crossing. See the SWA407 flight status page for this flight to view local times or setup timezone preferences in your user account.

Time Position Orientation Groundspeed Altitude Reporting Facility
EDT Latitude Longitude Course Direction KTS MPH feet Rate Location/Type
01:27AM 32.7817 -117.2822 305° West 228 262 6,200  Level Los Angeles Center
01:28AM 32.8250 -117.3397 312° West 245 282 10,600 3,600 Climbing Los Angeles Center
01:29AM 32.8797 -117.4167 310° West 296 341 13,600 3,540 Climbing Los Angeles Center
01:30AM 32.9431 -117.5017 312° West 334 384 17,800 4,020 Climbing Los Angeles Center
01:31AM 33.0394 -117.5831 325° Northwest 373 429 21,800 3,360 Climbing Los Angeles Center
01:32AM 33.1492 -117.6047 351° North 398 458 24,800 2,700 Climbing Los Angeles Center
01:33AM 33.2633 -117.6275 351° North 413 475 27,500 2,040 Climbing Los Angeles Center
01:34AM 33.3817 -117.6506 351° North 426 490 29,000 720 Climbing Los Angeles Center
01:35AM 33.5025 -117.6731 351° North 438 504 29,000  Level Los Angeles Center
01:36AM 33.6225 -117.6961 351° North 439 505 29,000  Level Los Angeles Center
01:38AM 33.7419 -117.7194 351° North 438 504 29,000  Level Los Angeles Center
01:39AM 33.8864 -117.7492 350° North 442 509 29,000  Level Los Angeles Center
01:40AM 34.0078 -117.7719 351° North 444 511 29,000  Level Los Angeles Center
01:41AM 34.1192 -117.7314 17° North 443 510 29,000  Level Los Angeles Center
01:42AM 34.2042 -117.6189 48° Northeast 454 522 29,000  Level Los Angeles Center
01:44AM 34.3731 -117.3881 48° Northeast 460 529 29,000  Level Los Angeles Center
01:45AM 34.4625 -117.2669 48° Northeast 463 533 29,000  Level Los Angeles Center
01:46AM 34.5478 -117.1503 48° Northeast 466 536 29,000  Level Los Angeles Center
01:47AM 34.6328 -117.0328 49° Northeast 466 536 29,000 -600 Level Los Angeles Center
01:48AM 34.7133 -116.9197 49° Northeast 443 510 27,800 -1,140 Descending Los Angeles Center
01:49AM 34.7906 -116.8133 49° Northeast 423 487 26,700 -900 Descending Los Angeles Center
01:50AM 34.8786 -116.7344 36° Northeast 396 456 26,000 -360 Descending Los Angeles Center
01:51AM 34.9842 -116.6372 37° Northeast 410 472 26,000 -420 Level Los Angeles Center
01:52AM 35.0447 -116.5150 59° Northeast 425 489 25,200 -900 Descending Los Angeles Center
01:53AM 35.1053 -116.3981 58° Northeast 416 479 24,200 -600 Descending Los Angeles Center
01:54AM 35.1808 -116.3031 46° Northeast 393 452 24,000 -120 Descending Los Angeles Center
01:55AM 35.2425 -116.2250 46° Northeast 396 456 24,000 -780 Level Los Angeles Center
01:56AM 35.3319 -116.1103 46° Northeast 390 449 22,500 -1,680 Descending Los Angeles Center
01:57AM 35.4056 -116.0206 45° Northeast 376 433 20,600 -1,860 Descending Los Angeles Center
01:58AM 35.4772 -115.9322 45° Northeast 367 422 18,700 -2,340 Descending Los Angeles Center
01:59AM 35.5289 -115.8644 47° Northeast 360 414 16,800 -2,460 Descending Los Angeles Center
01:59AM 35.5503 -115.8367 47° Northeast 353 406 16,200 -1,800 Descending Los Angeles Center
02:00AM 35.5928 -115.7808 47° Northeast 344 396 15,000 -1,800 Descending Los Angeles Center
02:00AM 35.6156 -115.7544 43° Northeast 342 394 14,400 -1,920 Descending Los Angeles Center
02:01AM 35.6575 -115.6994 47° Northeast 334 384 13,100 -1,320 Descending Los Angeles Center
02:01AM 35.6789 -115.6739 44° Northeast 332 382 13,100  Level Los Angeles Center
02:02AM 35.7256 -115.6142 46° Northeast 325 374 13,100  Level Los Angeles Center
02:02AM 35.7519 -115.5831 44° Northeast 328 377 13,100  Level Los Angeles Center
02:03AM 35.8031 -115.5731 North 307 353 13,100 -120 Level Los Angeles Center
02:03AM 35.8372 -115.5694 North 310 357 13,000 -120 Descending Los Angeles Center
02:04AM 35.8881 -115.5669 North 309 356 13,000 60 Level Los Angeles Center
02:04AM 35.9228 -115.5647 North 308 354 13,100  Climbing Los Angeles Center
02:05AM 35.9711 -115.5425 20° North 315 362 13,000 -540 Descending Los Angeles Center
02:05AM 35.9911 -115.5019 59° Northeast 317 365 12,600 -1,440 Descending Los Angeles Center
02:06AM 36.0158 -115.4192 70° East 323 372 11,300 -1,380 Descending Los Angeles Center
02:07AM 36.0264 -115.3281 82° East 298 343 10,300 -1,080 Descending Los Angeles Center
02:07AM 36.0256 -115.3000 92° East 300 345 10,000 -1,140 Descending Los Angeles Center
02:08AM 36.0197 -115.2267 96° East 292 336 9,200 -1,020 Descending Los Angeles Center
02:08AM 36.0186 -115.2019 93° East 294 338 9,000 -600 Descending Los Angeles Center
02:09AM 36.0144 -115.1433 95° East 262 302 8,700 -540 Descending Los Angeles Center
02:09AM 36.0131 -115.1133 93° East 272 313 8,500 -720 Descending Los Angeles Center
02:10AM 36.0083 -115.0656 97° East 233 268 8,000 -840 Descending Los Angeles Center
02:10AM 36.0069 -115.0364 93° East 240 276 7,700 -1,140 Descending Los Angeles Center
02:11AM 36.0047 -114.9897 93° East 208 239 6,800 -1,320 Descending Los Angeles Center
02:11AM 36.0047 -114.9667 90° East 218 251 6,400 -900 Descending Los Angeles Center
02:12AM 36.0303 -114.9386 42° Northeast 226 260 6,000 -600 Descending Los Angeles Center
02:12AM 36.0519 -114.9403 356° North 223 257 5,800 -900 Descending Los Angeles Center
02:13AM 36.0711 -114.9675 311° West 183 211 5,200 -1,200 Descending Los Angeles Center
02:13AM 36.0753 -114.9894 283° West 188 216 4,600 -1,320 Descending Los Angeles Center
02:14AM 36.0725 -115.0231 264° West 163 188 3,900 -1,140 Descending Los Angeles Center
02:14AM 36.0750 -115.0431 279° West 169 194 3,500 -1,020 Descending Los Angeles Center
02:14AM 36.0731 -115.0653 264° West 140 161 3,000 -840 Descending Los Angeles Center
02:15AM 36.0739 -115.0869 273° West 149 171 2,700 -600 Descending Los Angeles Center
02:16AM 36.0739 -115.1078 270° West 123 142 2,400 -540 Descending Los Angeles Center
02:16AM 36.0739 -115.1322 270° West 136 157 2,200 -360 Descending Los Angeles Center
02:18AM 36.0667 -115.1500 270° West  Level FlightAware Approximate